Time;durP1;ratioP1;P1;durP2;ratioP2;P2;SDS_P1;SDS_P2;PMS_P1;PMS_P2;Temp;Humidity;BMP_temperature;BMP_pressure;BME280_temperature;BME280_humidity;BME280_pressure;Samples;Min_cycle;Max_cycle;Signal;HPM_P1;HPM_P2
2022/06/20 00:01:07;;;;;;;3.85;1.50;;;12.60;99.90;;;;;;5039735;28;20021;-50
2022/06/20 00:03:41;;;;;;;4.93;1.45;;;12.50;99.90;;;;;;5037291;28;20060;-46
2022/06/20 00:06:13;;;;;;;3.58;1.58;;;12.50;99.90;;;;;;5045245;28;20044;-46
2022/06/20 00:08:39;;;;;;;5.03;1.40;;;12.50;99.90;;;;;;5038865;28;20018;-48
2022/06/20 00:11:05;;;;;;;5.05;2.28;;;12.50;99.90;;;;;;5042092;28;20020;-47
2022/06/20 00:13:34;;;;;;;3.88;1.58;;;12.50;99.90;;;;;;5038272;28;20052;-47
2022/06/20 00:16:01;;;;;;;6.43;1.50;;;12.50;99.90;;;;;;5046455;28;20033;-46
2022/06/20 00:18:28;;;;;;;5.50;2.08;;;12.50;99.90;;;;;;5038652;28;20435;-48
2022/06/20 00:20:54;;;;;;;6.20;1.55;;;12.50;99.90;;;;;;5038824;28;20033;-45
2022/06/20 00:23:19;;;;;;;5.03;1.98;;;12.50;99.90;;;;;;5043691;28;20018;-46
2022/06/20 00:25:45;;;;;;;3.22;1.35;;;12.40;99.90;;;;;;5038261;28;20396;-45
2022/06/20 00:28:12;;;;;;;5.97;1.77;;;12.40;99.90;;;;;;5045410;28;20096;-46
2022/06/20 00:30:39;;;;;;;4.07;2.22;;;12.40;99.90;;;;;;5038181;28;20392;-46
2022/06/20 00:33:05;;;;;;;2.53;1.73;;;12.30;99.90;;;;;;5044941;28;20491;-45
2022/06/20 00:35:32;;;;;;;5.80;1.67;;;12.30;99.90;;;;;;5037162;28;20061;-45
2022/06/20 00:37:58;;;;;;;5.43;1.27;;;12.20;99.90;;;;;;5038231;28;20091;-46
2022/06/20 00:40:34;;;;;;;3.28;1.50;;;12.20;99.90;;;;;;5042915;28;20041;-45
2022/06/20 00:42:59;;;;;;;3.30;1.47;;;12.20;99.90;;;;;;5037835;28;20032;-47
2022/06/20 00:45:30;;;;;;;7.60;2.20;;;12.20;99.90;;;;;;5043710;28;20261;-45
2022/06/20 00:48:03;;;;;;;4.85;2.22;;;12.20;99.90;;;;;;5038741;28;20551;-45
2022/06/20 00:50:32;;;;;;;3.00;1.45;;;12.20;99.90;;;;;;5041387;28;20079;-45
2022/06/20 00:53:04;;;;;;;4.93;1.27;;;12.20;99.90;;;;;;5039901;28;20025;-47
2022/06/20 00:55:39;;;;;;;3.85;1.52;;;12.20;99.90;;;;;;5041844;28;20491;-48
2022/06/20 00:58:15;;;;;;;3.53;1.48;;;12.10;99.90;;;;;;5040184;28;20120;-49
2022/06/20 01:00:41;;;;;;;;;;;12.10;99.90;;;;;;5039590;28;20021;-48
2022/06/20 01:03:30;;;;;;;4.43;1.30;;;12.10;99.90;;;;;;5035823;28;19908;-47
2022/06/20 01:06:02;;;;;;;5.53;1.95;;;12.10;99.90;;;;;;5043910;28;20040;-48
2022/06/20 01:08:33;;;;;;;4.65;1.75;;;12.00;99.90;;;;;;5038257;28;20491;-47
2022/06/20 01:11:00;;;;;;;3.65;1.83;;;12.00;99.90;;;;;;5045220;28;20028;-51
2022/06/20 01:13:26;;;;;;;4.35;1.55;;;12.00;99.90;;;;;;5037445;28;20641;-46
2022/06/20 01:15:55;;;;;;;5.72;1.60;;;12.00;99.90;;;;;;5045841;28;20028;-49
2022/06/20 01:18:33;;;;;;;4.00;1.75;;;12.00;99.90;;;;;;5037803;28;20021;-47
2022/06/20 01:21:02;;;;;;;3.67;1.50;;;12.00;99.90;;;;;;5038593;28;20028;-45
2022/06/20 01:23:42;;;;;;;4.57;1.70;;;12.00;99.90;;;;;;5042050;28;20022;-47
2022/06/20 01:26:56;;;;;;;3.47;1.35;;;12.00;99.90;;;;;;5040456;28;20160;-46
2022/06/20 01:29:22;;;;;;;4.38;1.80;;;12.10;99.90;;;;;;5035932;28;20041;-45
2022/06/20 01:31:54;;;;;;;4.35;1.63;;;12.00;99.90;;;;;;5040929;28;20391;-46
2022/06/20 01:34:20;;;;;;;4.97;2.00;;;12.00;99.90;;;;;;5032074;28;20475;-51
2022/06/20 01:39:39;;;;;;;3.40;1.40;;;12.00;99.90;;;;;;5042399;28;20098;-48
2022/06/20 01:42:19;;;;;;;4.22;1.83;;;12.00;99.90;;;;;;5042194;28;20506;-49
2022/06/20 01:45:57;;;;;;;7.18;2.20;;;12.00;99.90;;;;;;5048671;28;20079;-46
2022/06/20 01:47:51;;;;;;;6.63;2.10;;;12.00;99.90;;;;;;5038952;28;20392;-47
2022/06/20 01:50:17;;;;;;;5.00;2.30;;;11.90;99.90;;;;;;5044731;28;20025;-51
2022/06/20 01:52:44;;;;;;;3.13;1.60;;;11.90;99.90;;;;;;5044127;28;20025;-49
2022/06/20 01:55:16;;;;;;;3.33;1.52;;;11.90;99.90;;;;;;5044189;28;20060;-45
2022/06/20 01:57:45;;;;;;;4.68;1.77;;;11.90;99.90;;;;;;5044906;28;20033;-46
2022/06/20 02:00:15;;;;;;;4.65;1.92;;;11.80;99.90;;;;;;5044238;28;20047;-47
2022/06/20 02:02:47;;;;;;;2.67;1.77;;;11.80;99.90;;;;;;5044076;28;20025;-45
2022/06/20 02:05:21;;;;;;;4.57;2.60;;;11.80;99.90;;;;;;5042741;28;20078;-48
2022/06/20 02:07:47;;;;;;;4.00;2.03;;;11.80;99.90;;;;;;5043565;28;20025;-46
2022/06/20 02:10:19;;;;;;;3.80;1.80;;;11.70;99.90;;;;;;5041921;28;20116;-45
2022/06/20 02:12:47;;;;;;;3.30;1.80;;;11.70;99.90;;;;;;5043045;28;20108;-46
2022/06/20 02:15:20;;;;;;;3.40;2.90;;;11.60;99.90;;;;;;5044008;28;20029;-46
2022/06/20 02:17:48;;;;;;;8.15;2.38;;;11.60;99.90;;;;;;5044770;28;20647;-45
2022/06/20 02:20:25;;;;;;;7.07;2.08;;;11.50;99.90;;;;;;5037863;28;20098;-45
2022/06/20 02:22:52;;;;;;;8.57;2.72;;;11.50;99.90;;;;;;5046371;28;20024;-47
2022/06/20 02:25:30;;;;;;;5.53;2.08;;;11.40;99.90;;;;;;5041003;28;20028;-46
2022/06/20 02:28:04;;;;;;;6.97;2.10;;;11.40;99.90;;;;;;5048080;28;20036;-46
2022/06/20 02:30:30;;;;;;;4.25;1.77;;;11.30;99.90;;;;;;5040668;28;20545;-45
2022/06/20 02:33:02;;;;;;;7.07;2.33;;;11.30;99.90;;;;;;5036740;28;20104;-46
2022/06/20 02:35:29;;;;;;;4.75;2.00;;;11.20;99.90;;;;;;5042450;28;20017;-45
2022/06/20 02:37:55;;;;;;;3.72;1.77;;;11.20;99.90;;;;;;5041419;28;20499;-45
2022/06/20 02:40:25;;;;;;;3.47;1.50;;;11.20;99.90;;;;;;5043788;28;20037;-46
2022/06/20 02:42:56;;;;;;;4.22;1.80;;;11.10;99.90;;;;;;5043414;28;20025;-47
2022/06/20 02:45:23;;;;;;;4.50;1.83;;;11.10;99.90;;;;;;5044705;28;20025;-45
2022/06/20 02:47:52;;;;;;;3.85;2.13;;;11.10;99.90;;;;;;5043640;28;20017;-45
2022/06/20 02:50:23;;;;;;;7.85;1.98;;;11.00;99.90;;;;;;5039838;28;20033;-45
2022/06/20 02:53:03;;;;;;;4.95;2.17;;;11.00;99.90;;;;;;5046733;28;20021;-44
2022/06/20 02:55:30;;;;;;;5.20;2.10;;;11.00;99.90;;;;;;5038374;28;20410;-46
2022/06/20 02:57:59;;;;;;;3.55;1.98;;;11.00;99.90;;;;;;5046440;28;20024;-46
2022/06/20 03:00:33;;;;;;;5.47;2.25;;;10.90;99.90;;;;;;5040257;28;20441;-46
2022/06/20 03:03:22;;;;;;;6.75;2.25;;;10.90;99.90;;;;;;5041027;28;20026;-47
2022/06/20 03:05:48;;;;;;;6.60;1.98;;;10.90;99.90;;;;;;5041194;28;20028;-45
2022/06/20 03:08:16;;;;;;;4.78;1.85;;;10.90;99.90;;;;;;5043308;28;20017;-47
2022/06/20 03:10:46;;;;;;;3.28;2.35;;;10.80;99.90;;;;;;5043121;28;20022;-47
2022/06/20 03:13:12;;;;;;;6.07;2.28;;;10.80;99.90;;;;;;5041356;28;20194;-47
2022/06/20 03:15:40;;;;;;;5.43;2.55;;;10.80;99.90;;;;;;5044456;28;20439;-48
2022/06/20 03:18:06;;;;;;;2.03;1.55;;;10.80;99.90;;;;;;5042195;28;20394;-49
2022/06/20 03:20:34;;;;;;;4.55;2.33;;;10.70;99.90;;;;;;5042941;28;20025;-48
2022/06/20 03:23:32;;;;;;;3.65;1.77;;;10.70;99.90;;;;;;5041126;28;20087;-45
2022/06/20 03:26:01;;;;;;;4.03;1.90;;;10.70;99.90;;;;;;5031027;28;20065;-46
2022/06/20 03:28:29;;;;;;;3.97;1.95;;;10.70;99.90;;;;;;5042986;28;20104;-47
2022/06/20 03:30:59;;;;;;;8.07;2.30;;;10.70;99.90;;;;;;5042731;28;20498;-46
2022/06/20 03:33:25;;;;;;;3.90;1.55;;;10.70;99.90;;;;;;5042686;28;20033;-50
2022/06/20 03:36:30;;;;;;;4.13;2.50;;;10.70;99.90;;;;;;5042958;28;20553;-51
2022/06/20 03:38:57;;;;;;;7.97;2.42;;;10.80;99.90;;;;;;4987353;28;20461;-46
2022/06/20 03:41:26;;;;;;;6.32;2.35;;;10.80;99.90;;;;;;4989544;28;20038;-44
2022/06/20 03:44:15;;;;;;;5.03;2.30;;;10.80;99.90;;;;;;5011121;28;20034;-48
2022/06/20 03:46:46;;;;;;;5.10;2.47;;;10.80;99.90;;;;;;5041707;28;20056;-46
2022/06/20 03:49:21;;;;;;;6.97;2.13;;;10.80;99.90;;;;;;5042445;28;20029;-45
2022/06/20 03:52:01;;;;;;;4.90;2.95;;;10.80;99.90;;;;;;5041184;28;20522;-45
2022/06/20 03:54:37;;;;;;;2.55;2.13;;;10.80;99.90;;;;;;5031556;28;20041;-47
2022/06/20 03:57:35;;;;;;;4.82;2.20;;;10.80;99.90;;;;;;5041820;28;20033;-45
2022/06/20 04:00:16;;;;;;;2.50;1.55;;;10.80;99.90;;;;;;5035572;28;20033;-46
2022/06/20 04:03:03;;;;;;;4.47;2.45;;;10.80;99.90;;;;;;5043339;28;20080;-46
2022/06/20 04:05:50;;;;;;;6.00;2.67;;;10.80;99.90;;;;;;5037776;28;20026;-46
2022/06/20 04:10:57;;;;;;;;;;;10.90;99.90;;;;;;5032771;28;20029;-46
2022/06/20 04:11:16;;;;;;;3.85;2.17;;;11.00;99.90;;;;;;5041850;28;20383;-44
2022/06/20 04:13:57;;;;;;;5.95;2.65;;;11.00;99.90;;;;;;5042512;28;20396;-46
2022/06/20 04:16:36;;;;;;;4.55;2.25;;;11.10;99.90;;;;;;5031216;28;20032;-46
2022/06/20 04:19:06;;;;;;;10.77;2.30;;;11.20;99.90;;;;;;5039832;28;20018;-45
2022/06/20 04:21:52;;;;;;;7.35;2.70;;;11.20;99.90;;;;;;5041718;28;20098;-45
2022/06/20 04:24:36;;;;;;;5.75;2.65;;;11.30;99.90;;;;;;5040406;28;20017;-46
2022/06/20 04:27:24;;;;;;;5.75;2.90;;;11.30;99.90;;;;;;5039850;28;20032;-47
2022/06/20 04:29:58;;;;;;;8.77;2.97;;;11.30;99.90;;;;;;5045712;28;20055;-46
2022/06/20 04:32:37;;;;;;;5.90;2.88;;;11.40;99.90;;;;;;5037943;28;20410;-46
2022/06/20 04:35:12;;;;;;;6.68;2.47;;;11.40;99.90;;;;;;5040072;28;20028;-45
2022/06/20 04:37:55;;;;;;;4.60;3.08;;;11.40;99.90;;;;;;5040700;28;20169;-45
2022/06/20 04:40:35;;;;;;;7.28;2.75;;;11.40;99.90;;;;;;5028075;28;20029;-45
2022/06/20 04:43:12;;;;;;;6.30;3.10;;;11.40;99.90;;;;;;5039418;28;20040;-45
2022/06/20 04:46:09;;;;;;;8.55;2.60;;;11.50;99.90;;;;;;5042504;28;20360;-45
2022/06/20 04:48:34;;;;;;;6.15;2.88;;;11.50;99.90;;;;;;5037688;28;20049;-46
2022/06/20 04:51:06;;;;;;;7.85;2.67;;;11.60;99.90;;;;;;5044768;28;20549;-46
2022/06/20 04:53:35;;;;;;;10.18;3.00;;;11.70;99.90;;;;;;5037879;28;20021;-46
2022/06/20 04:56:04;;;;;;;5.22;2.42;;;11.70;99.90;;;;;;5045559;28;20036;-45
2022/06/20 04:58:41;;;;;;;4.68;3.22;;;11.80;99.90;;;;;;5038126;28;20324;-45
2022/06/20 05:01:08;;;;;;;4.72;2.92;;;11.80;99.90;;;;;;5039114;28;20026;-46
2022/06/20 05:03:39;;;;;;;7.75;2.92;;;11.90;99.90;;;;;;5040699;28;20036;-46
2022/06/20 05:06:09;;;;;;;6.50;2.97;;;12.00;99.90;;;;;;5038867;28;20403;-46
2022/06/20 05:08:45;;;;;;;8.27;2.67;;;12.10;99.90;;;;;;5041643;28;20014;-46
2022/06/20 05:11:27;;;;;;;8.85;2.80;;;12.10;99.90;;;;;;5039849;28;20017;-50
2022/06/20 05:14:08;;;;;;;13.52;3.17;;;12.20;99.90;;;;;;5040369;28;20551;-46
2022/06/20 05:16:38;;;;;;;3.60;2.38;;;12.30;99.90;;;;;;5041136;28;20624;-46
2022/06/20 05:19:12;;;;;;;4.72;2.65;;;12.30;99.90;;;;;;5037451;28;20021;-48
2022/06/20 05:21:43;;;;;;;8.55;2.88;;;12.40;99.90;;;;;;5040589;28;20025;-46
2022/06/20 05:24:18;;;;;;;7.18;2.63;;;12.40;99.90;;;;;;5039492;28;20021;-46
2022/06/20 05:26:48;;;;;;;8.50;3.30;;;12.50;99.90;;;;;;5034067;28;20115;-46
2022/06/20 05:29:20;;;;;;;8.20;3.05;;;12.60;99.90;;;;;;5034586;28;20025;-46
2022/06/20 05:31:49;;;;;;;4.10;2.28;;;12.80;99.90;;;;;;5040834;28;20104;-47
2022/06/20 05:34:38;;;;;;;7.47;2.65;;;12.90;99.90;;;;;;5034960;28;20036;-46
2022/06/20 05:37:33;;;;;;;5.70;1.85;;;13.10;99.90;;;;;;5043640;28;20033;-46
2022/06/20 05:40:05;;;;;;;10.95;2.70;;;13.40;99.90;;;;;;5034691;28;20029;-48
2022/06/20 05:42:31;;;;;;;11.98;2.58;;;13.50;99.90;;;;;;5038475;28;20032;-46
2022/06/20 05:44:57;;;;;;;12.18;2.80;;;13.60;99.90;;;;;;5037581;28;20033;-47
2022/06/20 05:47:26;;;;;;;8.38;2.38;;;13.70;99.90;;;;;;5039727;28;20124;-46
2022/06/20 05:50:01;;;;;;;5.72;1.95;;;13.60;99.90;;;;;;5039088;28;20029;-51
2022/06/20 05:52:30;;;;;;;6.55;1.90;;;13.80;99.90;;;;;;5040723;28;20021;-52
2022/06/20 05:55:14;;;;;;;3.97;1.70;;;14.00;99.90;;;;;;5039936;28;20495;-49
2022/06/20 05:57:43;;;;;;;9.68;2.10;;;14.20;99.90;;;;;;5041097;28;20471;-49
2022/06/20 06:00:41;;;;;;;9.27;1.95;;;14.40;99.90;;;;;;5037967;28;20135;-47
2022/06/20 06:03:21;;;;;;;6.90;2.35;;;14.60;99.90;;;;;;5025011;28;20044;-46
2022/06/20 06:06:01;;;;;;;7.68;2.00;;;14.80;99.90;;;;;;5034165;28;20026;-46
2022/06/20 06:09:20;;;;;;;8.38;1.92;;;14.80;99.90;;;;;;5032791;28;20017;-47
2022/06/20 06:12:13;;;;;;;10.30;3.20;;;14.70;99.90;;;;;;4967748;28;20035;-48
2022/06/20 06:14:47;;;;;;;9.90;2.35;;;14.70;99.90;;;;;;4967559;28;20508;-52
2022/06/20 06:17:49;;;;;;;5.72;2.00;;;14.70;99.90;;;;;;5012635;28;20037;-50
2022/06/20 06:20:21;;;;;;;7.15;2.00;;;14.80;99.90;;;;;;5026551;28;20056;-50
2022/06/20 06:22:50;;;;;;;7.85;2.60;;;14.90;99.90;;;;;;5037721;28;20032;-48
2022/06/20 06:25:23;;;;;;;13.50;3.17;;;14.80;99.90;;;;;;5034376;28;20025;-48
2022/06/20 06:27:50;;;;;;;4.93;1.83;;;14.70;99.90;;;;;;5037344;28;20017;-49
2022/06/20 06:30:43;;;;;;;5.28;2.13;;;14.70;99.90;;;;;;5032194;28;20033;-47
2022/06/20 06:33:36;;;;;;;7.70;2.25;;;14.60;99.90;;;;;;5041148;28;20018;-48
2022/06/20 06:36:11;;;;;;;4.55;2.55;;;14.50;99.90;;;;;;5041813;28;20072;-47
2022/06/20 06:38:39;;;;;;;3.67;1.58;;;14.40;99.90;;;;;;5044311;28;20040;-50
2022/06/20 06:41:30;;;;;;;6.10;2.13;;;14.20;99.90;;;;;;5032700;28;20132;-51
2022/06/20 06:43:59;;;;;;;3.92;2.05;;;14.10;99.90;;;;;;5045787;28;20068;-46
2022/06/20 06:46:31;;;;;;;4.50;1.60;;;14.00;99.90;;;;;;5040083;28;20613;-47
2022/06/20 06:49:24;;;;;;;10.05;2.38;;;14.00;99.90;;;;;;5040581;28;20017;-49
2022/06/20 06:52:14;;;;;;;6.00;1.80;;;13.90;99.90;;;;;;5046175;28;20403;-46
2022/06/20 06:54:43;;;;;;;4.40;1.90;;;13.80;99.90;;;;;;5039820;28;20029;-46
2022/06/20 06:57:32;;;;;;;2.75;1.50;;;13.90;99.90;;;;;;5047332;28;20461;-48
2022/06/20 07:00:04;;;;;;;7.82;1.95;;;13.80;99.90;;;;;;5039288;28;20025;-48
2022/06/20 07:02:38;;;;;;;3.47;1.33;;;13.80;99.90;;;;;;5045229;28;20532;-47
2022/06/20 07:05:38;;;;;;;4.05;1.60;;;13.80;99.90;;;;;;5039298;28;20036;-45
2022/06/20 07:08:16;;;;;;;5.63;1.55;;;13.90;99.90;;;;;;5041445;28;20438;-45
2022/06/20 07:10:47;;;;;;;3.22;1.63;;;14.10;99.90;;;;;;5041776;28;20532;-46
2022/06/20 07:13:31;;;;;;;4.68;1.15;;;14.30;99.90;;;;;;5041465;28;20021;-45
2022/06/20 07:15:59;;;;;;;5.03;1.40;;;14.70;99.90;;;;;;5041789;28;20570;-46
2022/06/20 07:18:34;;;;;;;3.22;1.42;;;14.90;99.90;;;;;;5038323;28;20047;-45
2022/06/20 07:20:59;;;;;;;3.80;1.35;;;15.20;99.90;;;;;;5045163;28;20032;-47
2022/06/20 07:23:25;;;;;;;4.63;1.27;;;15.30;99.90;;;;;;5038827;28;20037;-46
2022/06/20 07:25:51;;;;;;;2.83;1.20;;;15.50;99.90;;;;;;5046550;28;20044;-46
2022/06/20 07:28:38;;;;;;;5.35;1.42;;;15.70;99.90;;;;;;5039465;28;20036;-47
2022/06/20 07:31:19;;;;;;;5.25;1.55;;;15.80;99.90;;;;;;5046078;28;20049;-45
2022/06/20 07:33:47;;;;;;;2.08;1.30;;;15.90;99.90;;;;;;5038459;28;20029;-46
2022/06/20 07:36:17;;;;;;;4.03;1.65;;;16.00;99.90;;;;;;5042643;28;20428;-46
2022/06/20 07:38:56;;;;;;;3.00;1.02;;;16.00;99.90;;;;;;5041729;28;20017;-46
2022/06/20 07:41:33;;;;;;;3.83;1.40;;;16.00;99.90;;;;;;5029797;28;20032;-46
2022/06/20 07:44:06;;;;;;;3.30;1.40;;;16.20;99.90;;;;;;5041366;28;20031;-47
2022/06/20 07:46:44;;;;;;;3.30;1.70;;;16.60;99.90;;;;;;5043108;28;20063;-46
2022/06/20 07:49:20;;;;;;;5.15;1.17;;;16.90;99.90;;;;;;5041922;28;20037;-46
2022/06/20 07:51:48;;;;;;;2.17;1.10;;;17.20;99.90;;;;;;5042743;28;20030;-46
2022/06/20 07:54:39;;;;;;;3.20;1.60;;;17.40;99.90;;;;;;5040094;28;20033;-47
2022/06/20 07:57:14;;;;;;;1.95;1.10;;;17.70;99.90;;;;;;5040688;28;20483;-47
2022/06/20 07:59:48;;;;;;;2.88;1.30;;;17.90;99.90;;;;;;5041468;28;20227;-48
2022/06/20 08:02:32;;;;;;;4.93;1.02;;;18.20;99.90;;;;;;5032744;28;20079;-51
2022/06/20 08:05:00;;;;;;;6.78;1.08;;;18.20;99.90;;;;;;5040230;28;20022;-48
2022/06/20 08:07:41;;;;;;;2.03;0.95;;;18.00;99.90;;;;;;5043905;28;20025;-51
2022/06/20 08:10:07;;;;;;;2.45;0.90;;;17.70;99.90;;;;;;5041633;28;20479;-49
2022/06/20 08:12:48;;;;;;;2.22;0.98;;;17.50;99.90;;;;;;5043064;28;20029;-49
2022/06/20 08:15:33;;;;;;;4.00;0.90;;;17.10;99.90;;;;;;5042285;28;20048;-52
2022/06/20 08:17:59;;;;;;;4.45;1.40;;;16.80;99.90;;;;;;5042083;28;20067;-49
2022/06/20 08:20:30;;;;;;;5.32;1.10;;;16.60;99.90;;;;;;5042107;28;20029;-48
2022/06/20 08:23:22;;;;;;;2.92;1.30;;;16.30;99.90;;;;;;5039500;28;20053;-48
2022/06/20 08:25:53;;;;;;;4.00;1.50;;;16.10;99.90;;;;;;5038910;28;20033;-48
2022/06/20 08:28:21;;;;;;;2.40;1.30;;;15.80;99.90;;;;;;5040455;28;20119;-46
2022/06/20 08:30:47;;;;;;;4.30;1.52;;;15.80;99.90;;;;;;5042169;28;20029;-46
2022/06/20 08:33:38;;;;;;;5.38;2.55;;;15.90;99.90;;;;;;5040189;28;20027;-46
2022/06/20 08:36:10;;;;;;;2.92;1.30;;;16.20;99.90;;;;;;5039615;28;20491;-47
2022/06/20 08:39:00;;;;;;;5.60;1.92;;;16.50;99.90;;;;;;5037855;28;20080;-46
2022/06/20 08:41:47;;;;;;;3.53;1.83;;;16.50;99.90;;;;;;5032888;28;20029;-47
2022/06/20 08:44:18;;;;;;;1.77;1.33;;;16.80;99.90;;;;;;5041531;28;20009;-48
2022/06/20 08:47:11;;;;;;;3.65;1.45;;;17.30;99.90;;;;;;5041393;28;20030;-45
2022/06/20 08:50:16;;;;;;;3.85;1.58;;;17.60;99.90;;;;;;5033590;28;20119;-47
2022/06/20 08:52:41;;;;;;;3.95;1.42;;;18.00;99.90;;;;;;5036838;28;20041;-51
2022/06/20 08:55:26;;;;;;;6.82;3.22;;;18.20;99.90;;;;;;5045278;28;20055;-47
2022/06/20 08:57:59;;;;;;;2.28;1.35;;;18.40;99.90;;;;;;5035454;28;20021;-49
2022/06/20 09:00:40;;;;;;;2.25;1.48;;;18.20;99.90;;;;;;5044815;28;20037;-50
2022/06/20 09:03:30;;;;;;;3.90;1.60;;;18.10;99.90;;;;;;5038405;28;20053;-46
2022/06/20 09:05:59;;;;;;;2.90;1.70;;;18.00;99.90;;;;;;5039715;28;21177;-52
2022/06/20 09:08:43;;;;;;;1.83;1.02;;;17.80;99.90;;;;;;5041597;28;20589;-51
2022/06/20 09:11:19;;;;;;;1.90;1.13;;;17.70;99.90;;;;;;5040274;28;20046;-53
2022/06/20 09:14:07;;;;;;;4.78;1.63;;;17.70;99.90;;;;;;5041151;28;20021;-49
2022/06/20 09:16:45;;;;;;;3.55;1.63;;;17.60;99.90;;;;;;5037947;28;20063;-52
2022/06/20 09:19:45;;;;;;;3.15;1.50;;;17.90;99.90;;;;;;5037083;28;20131;-47
2022/06/20 09:22:14;;;;;;;3.05;1.27;;;18.10;99.90;;;;;;5032112;28;20549;-49
2022/06/20 09:25:21;;;;;;;2.78;1.52;;;18.20;99.90;;;;;;5040406;28;20018;-48
2022/06/20 09:27:59;;;;;;;4.50;1.60;;;18.20;99.90;;;;;;5004907;28;20048;-48
2022/06/20 09:30:58;;;;;;;4.47;1.90;;;18.30;99.90;;;;;;5032618;28;20049;-49
2022/06/20 09:33:57;;;;;;;3.42;1.52;;;18.80;99.90;;;;;;5041143;28;20037;-46
2022/06/20 09:36:36;;;;;;;1.67;1.05;;;18.80;99.90;;;;;;5033347;28;20049;-48
2022/06/20 09:39:30;;;;;;;3.25;1.88;;;18.50;99.90;;;;;;5039645;28;20100;-48
2022/06/20 09:42:00;;;;;;;2.88;2.10;;;18.30;99.90;;;;;;5039227;28;20181;-47
2022/06/20 09:44:51;;;;;;;6.07;1.80;;;18.30;99.90;;;;;;5041239;28;20505;-47
2022/06/20 09:47:33;;;;;;;5.05;1.55;;;18.10;99.90;;;;;;5041360;28;20426;-48
2022/06/20 09:50:14;;;;;;;2.25;1.60;;;18.20;99.90;;;;;;5039537;28;20391;-46
2022/06/20 09:53:04;;;;;;;4.65;2.40;;;18.50;99.90;;;;;;5036866;28;20029;-46
2022/06/20 09:55:48;;;;;;;3.55;1.80;;;18.90;99.90;;;;;;5032344;28;20029;-46
2022/06/20 09:58:42;;;;;;;2.45;1.70;;;19.40;99.90;;;;;;5042797;28;20021;-47
2022/06/20 10:01:21;;;;;;;4.22;2.33;;;19.50;99.90;;;;;;5044754;28;20415;-47
2022/06/20 10:04:09;;;;;;;2.10;1.38;;;19.50;99.90;;;;;;5044412;28;20017;-50
2022/06/20 10:06:59;;;;;;;3.78;1.80;;;19.10;99.70;;;;;;5040604;28;20021;-48
2022/06/20 10:09:38;;;;;;;4.82;1.77;;;18.70;99.90;;;;;;5038670;28;20025;-49
2022/06/20 10:12:16;;;;;;;5.15;1.52;;;18.30;99.90;;;;;;5048625;28;20422;-53
2022/06/20 10:14:54;;;;;;;5.93;1.95;;;18.20;99.90;;;;;;5040826;28;20095;-50
2022/06/20 10:17:34;;;;;;;4.47;2.08;;;18.20;99.90;;;;;;5034011;28;20025;-50
2022/06/20 10:20:06;;;;;;;4.57;2.17;;;18.00;99.90;;;;;;5041000;28;20045;-49
2022/06/20 10:22:46;;;;;;;5.15;1.92;;;17.90;99.90;;;;;;5043799;28;20083;-51
2022/06/20 10:25:29;;;;;;;5.72;1.85;;;17.80;98.60;;;;;;5042372;28;20797;-52
2022/06/20 10:27:58;;;;;;;2.20;1.50;;;17.60;98.90;;;;;;5043354;28;20083;-52
2022/06/20 10:30:58;;;;;;;8.73;2.53;;;17.70;99.90;;;;;;5042729;28;20394;-51
2022/06/20 10:33:32;;;;;;;3.47;2.08;;;18.20;99.90;;;;;;5043763;28;20060;-49
2022/06/20 10:36:13;;;;;;;2.83;1.85;;;18.50;99.90;;;;;;5042952;28;20028;-46
2022/06/20 10:38:52;;;;;;;5.55;2.30;;;18.60;99.90;;;;;;5036056;28;20534;-47
2022/06/20 10:41:36;;;;;;;5.95;2.65;;;18.40;99.60;;;;;;5034333;28;20476;-48
2022/06/20 10:44:23;;;;;;;4.38;1.98;;;18.30;99.90;;;;;;5040914;28;20537;-47
2022/06/20 10:47:28;;;;;;;3.53;1.70;;;18.10;99.90;;;;;;5041801;28;20018;-47
2022/06/20 10:50:25;;;;;;;6.50;2.22;;;18.00;99.90;;;;;;5296795;22;20023;-50
2022/06/20 10:53:12;;;;;;;4.18;1.80;;;17.70;99.90;;;;;;5036854;28;20045;-53
2022/06/20 10:55:45;;;;;;;2.80;2.00;;;17.80;99.90;;;;;;5043841;28;20029;-51
2022/06/20 10:58:45;;;;;;;4.47;1.83;;;18.00;98.30;;;;;;5043247;28;20017;-51
2022/06/20 11:01:21;;;;;;;2.85;1.55;;;18.00;98.80;;;;;;5043223;28;20100;-49
2022/06/20 11:03:53;;;;;;;3.72;1.30;;;18.10;98.80;;;;;;5043121;28;20391;-50
2022/06/20 11:06:48;;;;;;;4.30;1.80;;;18.10;98.10;;;;;;5042064;28;20085;-52
2022/06/20 11:09:28;;;;;;;2.03;1.83;;;18.10;97.70;;;;;;5035878;28;20475;-52
2022/06/20 11:12:00;;;;;;;6.78;2.20;;;18.20;99.80;;;;;;5046968;28;20033;-51
2022/06/20 11:14:39;;;;;;;4.18;2.22;;;18.30;98.30;;;;;;5039483;28;20025;-50
2022/06/20 11:17:17;;;;;;;5.55;2.03;;;18.40;98.30;;;;;;5047745;28;20495;-49
2022/06/20 11:19:52;;;;;;;5.45;1.58;;;18.20;98.60;;;;;;5039606;28;20053;-51
2022/06/20 11:22:29;;;;;;;5.70;1.75;;;18.00;98.70;;;;;;5043062;28;20046;-50
2022/06/20 11:25:44;;;;;;;3.53;1.50;;;18.00;99.60;;;;;;5041035;28;20021;-49
2022/06/20 11:28:16;;;;;;;3.67;1.45;;;18.20;97.70;;;;;;5020967;28;20463;-49
2022/06/20 11:30:51;;;;;;;2.20;1.45;;;18.50;95.80;;;;;;5025533;28;20123;-49
2022/06/20 11:36:26;;;;;;;7.65;1.88;;;18.70;97.60;;;;;;5034799;28;20708;-52
2022/06/20 11:38:54;;;;;;;4.90;1.98;;;19.00;97.80;;;;;;5038801;28;20025;-53
2022/06/20 11:41:41;;;;;;;2.10;1.40;;;19.20;97.10;;;;;;5044862;28;20116;-49
2022/06/20 11:44:42;;;;;;;3.45;1.42;;;19.20;96.20;;;;;;5041599;28;20706;-48
2022/06/20 11:47:11;;;;;;;4.70;1.17;;;18.90;96.00;;;;;;5039905;28;20526;-52
2022/06/20 11:50:00;;;;;;;2.38;1.23;;;18.60;94.40;;;;;;5042572;28;20021;-49
2022/06/20 11:52:38;;;;;;;3.40;1.20;;;18.40;95.40;;;;;;5028342;28;20116;-53
2022/06/20 11:55:28;;;;;;;4.55;1.33;;;18.40;98.00;;;;;;5059273;28;20033;-48
2022/06/20 11:58:05;;;;;;;2.67;1.00;;;18.40;96.80;;;;;;5036996;28;20028;-50
2022/06/20 12:00:45;;;;;;;5.80;1.63;;;18.30;96.70;;;;;;5044369;28;20036;-49
2022/06/20 12:03:35;;;;;;;3.33;1.20;;;18.20;97.40;;;;;;5041492;28;20021;-48
2022/06/20 12:06:20;;;;;;;4.13;1.42;;;17.90;98.00;;;;;;5040534;28;20017;-50
2022/06/20 12:09:13;;;;;;;3.25;1.20;;;17.90;99.10;;;;;;5042170;28;20024;-52
2022/06/20 12:12:01;;;;;;;1.90;1.30;;;18.10;98.70;;;;;;5039700;28;20028;-49
2022/06/20 12:14:57;;;;;;;4.95;1.15;;;18.30;99.50;;;;;;5035311;28;20029;-53
2022/06/20 12:17:47;;;;;;;3.70;0.80;;;18.80;98.60;;;;;;5031814;28;20029;-48
2022/06/20 12:23:27;;;;;;;5.60;1.42;;;19.30;95.40;;;;;;5040014;28;20035;-49
2022/06/20 12:26:11;;;;;;;2.70;1.20;;;19.10;95.10;;;;;;5041221;28;20363;-52
2022/06/20 12:28:42;;;;;;;3.75;1.35;;;18.70;96.20;;;;;;5038896;28;20029;-49
2022/06/20 12:31:07;;;;;;;3.53;1.50;;;18.20;97.90;;;;;;5038331;28;20060;-51
2022/06/20 12:33:36;;;;;;;2.85;1.40;;;17.90;98.30;;;;;;5036756;28;20061;-50
2022/06/20 12:36:11;;;;;;;2.75;1.63;;;17.90;99.50;;;;;;5042849;28;20568;-50
2022/06/20 12:39:10;;;;;;;3.58;1.58;;;18.10;99.90;;;;;;5037005;28;20021;-53
2022/06/20 12:42:11;;;;;;;4.55;1.02;;;18.10;99.90;;;;;;5031707;28;20048;-51
2022/06/20 12:44:47;;;;;;;2.17;1.25;;;18.00;99.90;;;;;;5029642;28;20403;-48
2022/06/20 12:47:32;;;;;;;3.25;1.50;;;17.90;99.90;;;;;;5040289;28;20025;-50
2022/06/20 12:50:18;;;;;;;4.97;1.40;;;17.90;99.90;;;;;;5040298;28;20613;-49
2022/06/20 12:52:47;;;;;;;3.17;1.25;;;18.20;99.90;;;;;;5027662;28;20049;-48
2022/06/20 12:55:34;;;;;;;1.95;1.02;;;18.60;99.20;;;;;;5044800;28;20025;-49
2022/06/20 12:58:25;;;;;;;5.78;0.80;;;18.90;96.60;;;;;;5037453;28;20102;-48
2022/06/20 13:00:57;;;;;;;2.20;1.20;;;19.20;94.70;;;;;;5041054;28;20032;-48
2022/06/20 13:03:31;;;;;;;1.13;0.77;;;19.30;94.10;;;;;;5040661;28;20107;-53
2022/06/20 13:06:19;;;;;;;1.33;1.00;;;19.20;94.10;;;;;;5039506;28;20025;-52
2022/06/20 13:09:01;;;;;;;1.40;1.05;;;19.00;94.70;;;;;;5041373;28;20029;-53
2022/06/20 13:11:52;;;;;;;2.00;0.90;;;19.20;95.70;;;;;;5035455;28;20124;-53
2022/06/20 13:14:17;;;;;;;1.48;0.70;;;19.40;94.00;;;;;;5032920;28;20017;-54
2022/06/20 13:17:10;;;;;;;6.15;0.93;;;19.50;93.50;;;;;;5044955;28;20407;-50
2022/06/20 13:19:58;;;;;;;0.93;0.75;;;19.70;93.50;;;;;;5034653;28;20041;-49
2022/06/20 13:22:56;;;;;;;2.05;1.20;;;19.80;91.90;;;;;;5027755;28;20630;-52
2022/06/20 13:25:30;;;;;;;1.88;1.00;;;19.40;93.40;;;;;;5011406;28;20095;-49
2022/06/20 13:27:55;;;;;;;2.00;1.00;;;19.10;94.60;;;;;;5040235;28;20021;-48
2022/06/20 13:30:44;;;;;;;3.33;1.25;;;19.10;94.90;;;;;;5040799;28;20391;-50
2022/06/20 13:33:13;;;;;;;4.25;1.10;;;19.00;94.90;;;;;;5039437;28;20392;-51
2022/06/20 13:35:54;;;;;;;2.35;1.42;;;19.00;96.10;;;;;;5044642;28;20119;-51
2022/06/20 13:38:23;;;;;;;3.63;1.55;;;19.00;95.70;;;;;;5039106;28;20030;-49
2022/06/20 13:41:07;;;;;;;1.92;1.42;;;18.90;96.30;;;;;;5047744;28;20033;-49
2022/06/20 13:44:14;;;;;;;2.75;1.38;;;18.70;95.90;;;;;;5039465;28;20664;-49
2022/06/20 13:46:46;;;;;;;6.07;1.55;;;18.80;95.70;;;;;;5002273;28;20061;-52
2022/06/20 13:49:40;;;;;;;5.80;1.27;;;19.00;96.30;;;;;;5059861;28;20028;-51
2022/06/20 13:52:14;;;;;;;4.00;1.40;;;18.90;95.00;;;;;;5036820;28;20040;-49